createdAt,value
2022-09-25T00:04:23.918Z,41.35
2022-09-25T00:09:26.771Z,39.85
2022-09-25T00:14:31.013Z,34.42
2022-09-25T00:19:51.890Z,40.38
2022-09-25T00:24:54.983Z,33.63
2022-09-25T00:30:00.286Z,32.97
2022-09-25T00:35:03.349Z,34.97
2022-09-25T00:40:07.344Z,36.47
2022-09-25T00:45:17.243Z,30.23
2022-09-25T00:50:30.046Z,38.90
2022-09-25T01:00:38.325Z,25.70
2022-09-25T01:05:45.256Z,32.88
2022-09-25T01:10:48.169Z,29.85
2022-09-25T01:16:00.358Z,32.00
2022-09-25T01:21:17.416Z,32.85
2022-09-25T01:26:37.894Z,32.42
2022-09-25T01:31:47.609Z,33.45
2022-09-25T01:36:58.758Z,28.30
2022-09-25T01:42:07.716Z,31.73
2022-09-25T01:47:18.658Z,32.08
2022-09-25T01:52:27.002Z,33.25
2022-09-25T01:57:37.585Z,31.10
2022-09-25T02:02:48.223Z,28.50
2022-09-25T02:07:56.783Z,30.63
2022-09-25T02:13:06.748Z,32.30
2022-09-25T02:18:33.031Z,34.67
2022-09-25T02:23:45.241Z,31.98
2022-09-25T02:28:48.792Z,39.13
2022-09-25T02:33:53.277Z,30.95
2022-09-25T02:38:57.201Z,30.20
2022-09-25T02:44:18.121Z,30.08
2022-09-25T02:49:30.479Z,30.42
2022-09-25T02:54:38.736Z,27.88
2022-09-25T02:59:46.175Z,26.20
2022-09-25T03:04:52.388Z,26.33
2022-09-25T03:09:59.016Z,24.65
2022-09-25T03:15:01.926Z,25.88
2022-09-25T03:20:07.058Z,21.55
2022-09-25T03:25:10.079Z,30.85
2022-09-25T03:30:14.190Z,25.55
2022-09-25T03:35:18.366Z,19.75
2022-09-25T03:40:21.451Z,14.73
2022-09-25T03:45:24.830Z,17.38
2022-09-25T03:50:28.957Z,28.73
2022-09-25T03:55:31.862Z,21.17
2022-09-25T04:00:34.695Z,16.05
2022-09-25T04:05:39.504Z,16.15
2022-09-25T04:10:42.411Z,20.30
2022-09-25T04:15:45.225Z,16.83
2022-09-25T04:20:49.392Z,18.17
2022-09-25T04:25:52.258Z,17.23
2022-09-25T04:30:55.144Z,12.63
2022-09-25T04:35:59.263Z,18.02
2022-09-25T04:41:02.560Z,11.00
2022-09-25T04:46:08.228Z,20.27
2022-09-25T04:51:12.544Z,20.52
2022-09-25T04:56:16.660Z,15.57
2022-09-25T05:01:21.591Z,13.18
2022-09-25T05:06:26.970Z,22.13
2022-09-25T05:11:29.863Z,11.75
2022-09-25T05:16:32.813Z,17.58
2022-09-25T05:21:37.061Z,15.57
2022-09-25T05:26:40.808Z,11.23
2022-09-25T05:31:46.733Z,18.95
2022-09-25T05:36:51.618Z,13.35
2022-09-25T05:41:54.569Z,16.95
2022-09-25T05:46:57.397Z,17.83
2022-09-25T05:52:01.797Z,13.80
2022-09-25T05:57:04.797Z,12.20
2022-09-25T06:02:07.694Z,10.77
2022-09-25T06:07:11.876Z,17.70
2022-09-25T06:12:14.643Z,14.25
2022-09-25T06:22:21.478Z,13.88
2022-09-25T06:27:24.360Z,9.43
2022-09-25T06:32:27.408Z,12.10
2022-09-25T06:37:31.598Z,8.55
2022-09-25T06:42:35.223Z,12.13
2022-09-25T06:53:17.687Z,11.63
2022-09-25T06:58:22.262Z,10.63
2022-09-25T07:03:42.686Z,10.10
2022-09-25T07:08:48.097Z,12.60
2022-09-25T07:13:52.252Z,10.32
2022-09-25T07:18:55.586Z,11.32
2022-09-25T07:23:59.965Z,9.65
2022-09-25T07:29:04.742Z,13.30
2022-09-25T07:34:10.040Z,17.00
2022-09-25T07:39:18.392Z,7.15
2022-09-25T07:44:29.176Z,14.48
2022-09-25T07:49:32.937Z,7.47
2022-09-25T07:54:37.765Z,9.90
2022-09-25T07:59:40.524Z,9.32
2022-09-25T08:04:43.317Z,7.90
2022-09-25T08:09:47.459Z,11.55
2022-09-25T08:14:50.219Z,10.40
2022-09-25T08:19:53.122Z,8.95
2022-09-25T08:24:57.296Z,13.55
2022-09-25T08:30:00.478Z,9.15
2022-09-25T08:35:03.615Z,11.88
2022-09-25T08:40:14.086Z,9.20
2022-09-25T08:45:44.694Z,6.82
2022-09-25T08:50:48.159Z,10.75
2022-09-25T08:56:10.327Z,9.13
2022-09-25T09:01:15.958Z,5.38
2022-09-25T09:06:20.630Z,9.50
2022-09-25T09:11:32.127Z,6.47
2022-09-25T09:16:43.203Z,9.82
2022-09-25T09:22:10.497Z,7.50
2022-09-25T09:27:39.736Z,8.10
2022-09-25T09:33:27.998Z,2.63
2022-09-25T09:38:52.700Z,8.05
2022-09-25T09:44:22.219Z,7.32
2022-09-25T09:49:47.245Z,5.15
2022-09-25T09:55:03.368Z,6.90
2022-09-25T10:00:36.870Z,7.15
2022-09-25T10:05:54.921Z,8.00
2022-09-25T10:11:23.022Z,6.55
2022-09-25T10:16:47.428Z,3.33
2022-09-25T10:22:02.610Z,7.28
2022-09-25T10:27:31.223Z,4.53
2022-09-25T10:32:56.466Z,2.78
2022-09-25T10:38:08.565Z,3.83
2022-09-25T10:43:28.363Z,2.47
2022-09-25T10:49:21.225Z,2.80
2022-09-25T10:54:45.158Z,4.53
2022-09-25T10:59:55.471Z,6.57
2022-09-25T11:05:09.559Z,3.53
2022-09-25T11:10:26.270Z,2.08
2022-09-25T11:15:35.242Z,4.43
2022-09-25T11:20:45.813Z,3.72
2022-09-25T11:25:55.483Z,3.38
2022-09-25T11:31:14.250Z,2.07
2022-09-25T11:36:26.842Z,5.05
2022-09-25T11:41:48.329Z,3.45
2022-09-25T11:47:05.499Z,3.67
2022-09-25T11:52:47.232Z,3.83
2022-09-25T11:58:07.930Z,16.38
2022-09-25T12:03:30.051Z,2.70
2022-09-25T12:09:08.786Z,2.30
2022-09-25T12:14:25.847Z,2.30
2022-09-25T12:19:50.144Z,2.83
2022-09-25T12:25:20.180Z,4.95
2022-09-25T12:30:39.472Z,4.60
2022-09-25T12:41:43.504Z,4.70
2022-09-25T12:47:16.122Z,3.63
2022-09-25T12:52:35.308Z,4.75
2022-09-25T12:58:18.755Z,2.65
2022-09-25T13:03:33.226Z,6.40
2022-09-25T13:08:57.528Z,3.97
2022-09-25T13:14:04.083Z,2.35
2022-09-25T13:19:25.326Z,5.20
2022-09-25T13:24:28.435Z,2.65
2022-09-25T13:29:36.561Z,4.15
2022-09-25T13:34:41.667Z,3.15
2022-09-25T13:40:06.476Z,2.38
2022-09-25T13:45:33.502Z,4.50
2022-09-25T13:50:39.926Z,5.65
2022-09-25T13:55:43.662Z,3.78
2022-09-25T14:00:57.620Z,2.72
2022-09-25T14:06:01.801Z,2.17
2022-09-25T14:11:09.215Z,2.65
2022-09-25T14:16:29.694Z,4.07
2022-09-25T14:21:34.535Z,1.70
2022-09-25T14:26:44.185Z,2.85
2022-09-25T14:32:04.911Z,5.15
2022-09-25T14:37:17.844Z,10.10
2022-09-25T14:42:39.567Z,2.03
2022-09-25T14:47:47.423Z,1.97
2022-09-25T14:52:55.483Z,1.88
2022-09-25T14:57:58.693Z,3.45
2022-09-25T15:03:03.674Z,1.27
2022-09-25T15:08:21.433Z,6.47
2022-09-25T15:13:24.160Z,3.72
2022-09-25T15:18:30.609Z,4.72
2022-09-25T15:23:35.348Z,8.65
2022-09-25T15:28:39.983Z,1.73
2022-09-25T15:33:44.413Z,2.05
2022-09-25T15:38:54.024Z,3.95
2022-09-25T15:44:14.576Z,6.63
2022-09-25T15:49:22.325Z,5.07
2022-09-25T15:54:44.450Z,2.53
2022-09-25T16:00:07.160Z,4.90
2022-09-25T16:10:33.494Z,3.63
2022-09-25T16:15:54.633Z,3.33
2022-09-25T16:21:13.560Z,5.07
2022-09-25T16:26:22.097Z,2.95
2022-09-25T16:31:25.976Z,4.35
2022-09-25T16:36:39.994Z,4.70
2022-09-25T16:41:48.470Z,3.25
2022-09-25T16:47:21.513Z,4.53
2022-09-25T16:52:28.922Z,3.35
2022-09-25T16:57:33.258Z,3.15
2022-09-25T17:02:41.807Z,4.35
2022-09-25T17:07:48.521Z,1.77
2022-09-25T17:12:54.137Z,1.52
2022-09-25T17:17:57.053Z,3.25
2022-09-25T17:28:39.239Z,5.18
2022-09-25T17:33:42.292Z,3.70
2022-09-25T17:38:46.658Z,3.63
2022-09-25T17:43:50.783Z,4.03
2022-09-25T17:48:54.902Z,3.58
2022-09-25T17:53:59.525Z,2.38
2022-09-25T17:59:05.265Z,4.47
2022-09-25T18:04:19.538Z,1.95
2022-09-25T18:09:22.355Z,2.88
2022-09-25T18:14:26.570Z,7.07
2022-09-25T18:19:46.723Z,5.00
2022-09-25T18:24:52.762Z,3.55
2022-09-25T18:29:57.807Z,2.83
2022-09-25T18:35:02.464Z,5.57
2022-09-25T18:40:06.015Z,3.97
2022-09-25T18:45:12.963Z,4.38
2022-09-25T18:50:20.619Z,2.83
2022-09-25T18:55:23.920Z,1.77
2022-09-25T19:00:28.262Z,6.68
2022-09-25T19:05:31.456Z,4.20
2022-09-25T19:10:35.526Z,3.53
2022-09-25T19:15:43.309Z,3.90
2022-09-25T19:20:51.748Z,5.22
2022-09-25T19:25:56.421Z,3.33
2022-09-25T19:31:03.690Z,5.13
2022-09-25T19:36:08.939Z,5.63
2022-09-25T19:41:14.650Z,5.47
2022-09-25T19:46:20.336Z,9.50
2022-09-25T19:51:24.584Z,3.78
2022-09-25T19:56:27.514Z,5.85
2022-09-25T20:01:31.736Z,3.83
2022-09-25T20:06:36.364Z,1.67
2022-09-25T20:11:39.307Z,4.07
2022-09-25T20:16:43.607Z,3.97
2022-09-25T20:21:46.430Z,4.85
2022-09-25T20:26:49.268Z,5.43
2022-09-25T20:31:53.810Z,6.30
2022-09-25T20:36:56.917Z,5.15
2022-09-25T20:41:59.839Z,6.10
2022-09-25T20:47:03.992Z,3.40
2022-09-25T20:52:06.836Z,5.85
2022-09-25T20:57:09.876Z,6.18
2022-09-25T21:02:14.187Z,4.10
2022-09-25T21:07:17.487Z,6.47
2022-09-25T21:12:21.379Z,8.98
2022-09-25T21:17:25.789Z,5.78
2022-09-25T21:22:28.590Z,8.13
2022-09-25T21:32:35.456Z,6.93
2022-09-25T21:37:38.973Z,9.90
2022-09-25T21:42:41.745Z,5.82
2022-09-25T21:52:48.462Z,6.03
2022-09-25T22:02:55.504Z,7.60
2022-09-25T22:07:58.374Z,10.73
2022-09-25T22:13:01.582Z,5.60
2022-09-25T22:18:05.805Z,6.80
2022-09-25T22:23:08.633Z,4.97
2022-09-25T22:28:11.446Z,7.68
2022-09-25T22:33:15.606Z,4.10
2022-09-25T22:38:18.357Z,5.25
2022-09-25T22:48:25.185Z,4.18
2022-09-25T22:53:30.440Z,7.93
2022-09-25T22:58:33.180Z,7.50
2022-09-25T23:08:39.924Z,5.78
2022-09-25T23:18:46.702Z,3.20
2022-09-25T23:23:49.514Z,4.65
2022-09-25T23:28:52.501Z,5.72
2022-09-25T23:33:57.247Z,3.67
2022-09-25T23:39:01.767Z,6.40
2022-09-25T23:44:06.699Z,6.03
2022-09-25T23:49:11.969Z,6.28
2022-09-25T23:54:15.352Z,6.55
2022-09-25T23:59:18.300Z,4.50
